createdAt,value
2023-05-10T00:02:29.608Z,5.90
2023-05-10T00:07:32.841Z,6.10
2023-05-10T00:12:35.786Z,5.90
2023-05-10T00:17:38.755Z,5.40
2023-05-10T00:22:41.755Z,6.30
2023-05-10T00:27:44.751Z,6.00
2023-05-10T00:32:49.309Z,6.20
2023-05-10T00:37:52.255Z,6.00
2023-05-10T00:42:55.214Z,6.40
2023-05-10T00:47:58.409Z,8.30
2023-05-10T00:53:03.205Z,7.10
2023-05-10T00:58:06.346Z,6.60
2023-05-10T01:03:09.389Z,6.40
2023-05-10T01:08:12.478Z,5.80
2023-05-10T01:13:24.480Z,5.40
2023-05-10T01:18:29.152Z,6.20
2023-05-10T01:23:57.934Z,7.00
2023-05-10T01:29:19.946Z,6.40
2023-05-10T01:34:32.708Z,6.70
2023-05-10T01:40:08.903Z,6.80
2023-05-10T01:45:38.041Z,6.00
2023-05-10T01:50:44.957Z,6.30
2023-05-10T01:55:53.446Z,6.20
2023-05-10T02:00:59.403Z,6.00
2023-05-10T02:06:04.332Z,6.00
2023-05-10T02:11:09.109Z,5.80
2023-05-10T02:16:14.444Z,5.90
2023-05-10T02:21:18.385Z,6.00
2023-05-10T02:26:24.805Z,6.20
2023-05-10T02:31:28.237Z,6.20
2023-05-10T02:36:31.502Z,6.50
2023-05-10T02:41:34.731Z,6.40
2023-05-10T02:46:38.811Z,6.20
2023-05-10T02:51:52.044Z,6.50
2023-05-10T02:57:03.984Z,6.10
2023-05-10T03:02:07.617Z,6.40
2023-05-10T03:07:10.777Z,6.10
2023-05-10T03:12:47.479Z,6.20
2023-05-10T03:18:03.206Z,5.60
2023-05-10T03:23:15.092Z,5.20
2023-05-10T03:28:19.867Z,5.60
2023-05-10T03:33:22.848Z,6.30
2023-05-10T03:38:26.844Z,5.10
2023-05-10T03:43:30.226Z,6.30
2023-05-10T03:48:34.485Z,6.90
2023-05-10T03:53:37.413Z,7.00
2023-05-10T03:58:40.340Z,7.50
2023-05-10T04:03:43.320Z,7.40
2023-05-10T04:08:46.254Z,6.50
2023-05-10T04:13:49.532Z,7.20
2023-05-10T04:18:52.484Z,6.70
2023-05-10T04:23:55.398Z,7.00
2023-05-10T04:28:58.300Z,7.00
2023-05-10T04:34:01.220Z,6.10
2023-05-10T04:39:05.052Z,6.20
2023-05-10T04:44:07.983Z,6.10
2023-05-10T04:49:10.893Z,6.00
2023-05-10T04:54:13.821Z,5.70
2023-05-10T04:59:16.807Z,6.20
2023-05-10T05:04:19.767Z,6.10
2023-05-10T05:09:22.677Z,5.30
2023-05-10T05:14:28.708Z,5.90
2023-05-10T05:19:32.860Z,5.60
2023-05-10T05:24:42.253Z,5.90
2023-05-10T05:29:45.417Z,5.70
2023-05-10T05:34:49.200Z,6.00
2023-05-10T05:39:52.448Z,5.70
2023-05-10T05:44:55.401Z,5.60
2023-05-10T05:49:58.377Z,5.80
2023-05-10T05:55:01.397Z,6.40
2023-05-10T06:00:05.188Z,5.20
2023-05-10T06:05:08.864Z,5.00
2023-05-10T06:10:11.887Z,5.00
2023-05-10T06:15:15.039Z,4.80
2023-05-10T06:20:18.389Z,5.00
2023-05-10T06:25:22.427Z,3.90
2023-05-10T06:30:29.636Z,3.90
2023-05-10T06:35:34.577Z,3.90
2023-05-10T06:40:37.628Z,4.40
2023-05-10T06:45:40.556Z,4.00
2023-05-10T06:50:43.503Z,3.80
2023-05-10T06:55:46.647Z,4.10
2023-05-10T07:00:49.677Z,3.90
2023-05-10T07:05:52.657Z,4.20
2023-05-10T07:11:04.528Z,4.20
2023-05-10T07:16:07.672Z,3.90
2023-05-10T07:21:10.663Z,3.40
2023-05-10T07:26:13.667Z,3.70
2023-05-10T07:31:16.990Z,3.20
2023-05-10T07:41:23.563Z,3.30
2023-05-10T07:46:26.757Z,3.20
2023-05-10T07:51:32.852Z,3.40
2023-05-10T07:56:36.278Z,3.50
2023-05-10T08:01:39.210Z,3.00
2023-05-10T08:06:42.294Z,3.10
2023-05-10T08:11:45.317Z,3.20
2023-05-10T08:16:48.359Z,2.90
2023-05-10T08:21:51.328Z,2.90
2023-05-10T08:26:54.285Z,2.60
2023-05-10T08:31:57.210Z,3.40
2023-05-10T08:37:00.141Z,3.40
2023-05-10T08:42:05.686Z,3.30
2023-05-10T08:47:11.081Z,3.10
2023-05-10T08:52:16.523Z,3.00
2023-05-10T08:57:21.377Z,2.90
2023-05-10T09:02:25.243Z,3.30
2023-05-10T09:07:28.629Z,3.10
2023-05-10T09:17:35.051Z,3.40
2023-05-10T09:22:38.944Z,3.20
2023-05-10T09:27:46.310Z,3.20
2023-05-10T09:32:49.603Z,3.00
2023-05-10T09:43:11.939Z,3.00
2023-05-10T09:48:14.898Z,2.90
2023-05-10T09:53:17.892Z,3.10
2023-05-10T09:58:21.062Z,2.80
2023-05-10T10:03:25.406Z,2.70
2023-05-10T10:08:28.855Z,2.70
2023-05-10T10:13:33.163Z,2.70
2023-05-10T10:18:39.923Z,3.10
2023-05-10T10:23:42.980Z,2.70
2023-05-10T10:29:06.229Z,2.90
2023-05-10T10:34:26.859Z,3.10
2023-05-10T10:39:29.896Z,2.70
2023-05-10T10:44:34.796Z,2.80
2023-05-10T10:50:05.638Z,3.00
2023-05-10T10:55:27.660Z,2.70
2023-05-10T11:00:32.915Z,2.70
2023-05-10T11:05:42.376Z,2.90
2023-05-10T11:11:04.636Z,2.80
2023-05-10T11:16:17.539Z,2.90
2023-05-10T11:26:27.331Z,2.90
2023-05-10T11:31:30.687Z,3.00
2023-05-10T11:36:36.931Z,3.40
2023-05-10T11:41:42.838Z,3.30
2023-05-10T11:46:46.142Z,3.30
2023-05-10T11:51:49.122Z,3.00
2023-05-10T11:56:52.092Z,3.10
2023-05-10T12:01:55.358Z,2.90
2023-05-10T12:17:05.989Z,3.10
2023-05-10T12:22:09.297Z,3.00
2023-05-10T12:32:45.195Z,3.20
2023-05-10T12:37:48.831Z,2.80
2023-05-10T12:42:52.280Z,2.90
2023-05-10T12:47:55.366Z,3.10
2023-05-10T12:52:58.305Z,2.80
2023-05-10T12:58:01.213Z,2.90
2023-05-10T13:03:06.219Z,3.00
2023-05-10T13:08:09.121Z,3.20
2023-05-10T13:13:12.121Z,3.40
2023-05-10T13:18:15.064Z,3.40
2023-05-10T13:23:18.001Z,3.10
2023-05-10T13:28:20.867Z,3.20
2023-05-10T13:33:23.760Z,3.10
2023-05-10T13:38:26.779Z,3.30
2023-05-10T13:43:30.759Z,3.30
2023-05-10T13:48:34.011Z,3.20
2023-05-10T13:53:37.575Z,2.90
2023-05-10T14:03:43.377Z,3.00
2023-05-10T14:08:46.720Z,2.70
2023-05-10T14:29:00.025Z,2.70
2023-05-10T14:34:04.005Z,3.10
2023-05-10T14:39:07.863Z,3.60
2023-05-10T14:44:11.133Z,3.30
2023-05-10T14:54:19.640Z,3.10
2023-05-10T14:59:22.648Z,3.00
2023-05-10T15:09:32.160Z,3.20
2023-05-10T15:14:37.314Z,3.20
2023-05-10T15:19:40.211Z,2.90
2023-05-10T15:24:43.183Z,3.50
2023-05-10T15:29:46.437Z,3.70
2023-05-10T15:39:52.336Z,3.20
2023-05-10T15:44:55.264Z,2.90
2023-05-10T15:49:58.197Z,3.90
2023-05-10T15:55:01.123Z,3.30
2023-05-10T16:00:05.322Z,9.30
2023-05-10T16:05:10.332Z,5.00
2023-05-10T16:10:13.336Z,16.40
2023-05-10T16:15:16.649Z,11.50
2023-05-10T16:20:19.968Z,4.30
2023-05-10T16:25:22.936Z,27.00
2023-05-10T16:30:27.552Z,10.70
2023-05-10T16:35:30.636Z,5.30
2023-05-10T16:40:33.975Z,5.10
2023-05-10T16:55:46.208Z,6.90
2023-05-10T17:00:49.205Z,5.20
2023-05-10T17:05:52.153Z,11.80
2023-05-10T17:10:55.077Z,18.00
2023-05-10T17:15:58.266Z,9.50
2023-05-10T17:21:01.471Z,6.90
2023-05-10T17:26:06.341Z,7.50
2023-05-10T17:31:09.663Z,4.80
2023-05-10T17:41:15.479Z,9.10
2023-05-10T17:46:18.653Z,7.00
2023-05-10T17:51:21.640Z,12.40
2023-05-10T17:56:24.589Z,10.70
2023-05-10T18:01:27.846Z,5.60
2023-05-10T18:06:30.870Z,13.40
2023-05-10T18:11:36.730Z,18.30
2023-05-10T18:16:39.797Z,21.70
2023-05-10T18:21:42.850Z,20.10
2023-05-10T18:26:46.024Z,12.90
2023-05-10T18:31:49.073Z,13.70
2023-05-10T18:36:52.512Z,8.80
2023-05-10T18:46:59.358Z,15.10
2023-05-10T18:52:02.333Z,11.30
2023-05-10T18:57:05.526Z,9.10
2023-05-10T19:02:08.681Z,8.10
2023-05-10T19:07:11.816Z,8.20
2023-05-10T19:12:15.028Z,6.80
2023-05-10T19:17:19.388Z,7.30
2023-05-10T19:22:36.036Z,5.50
2023-05-10T19:27:45.645Z,5.60
2023-05-10T19:32:48.653Z,5.60
2023-05-10T19:37:51.942Z,5.70
2023-05-10T19:42:57.165Z,6.00
2023-05-10T19:48:00.230Z,5.00
2023-05-10T19:53:03.222Z,5.60
2023-05-10T19:58:06.657Z,5.80
2023-05-10T20:03:09.696Z,6.00
2023-05-10T20:08:12.697Z,5.70
2023-05-10T20:13:15.656Z,4.80
2023-05-10T20:18:18.582Z,5.00
2023-05-10T20:23:22.696Z,5.00
2023-05-10T20:28:26.400Z,3.90
2023-05-10T20:33:29.458Z,4.70
2023-05-10T20:38:32.573Z,3.90
2023-05-10T20:43:35.790Z,4.70
2023-05-10T20:48:38.724Z,4.20
2023-05-10T20:53:41.706Z,4.40
2023-05-10T20:58:45.032Z,4.30
2023-05-10T21:03:48.056Z,4.80
2023-05-10T21:08:50.971Z,4.10
2023-05-10T21:13:53.914Z,3.60
2023-05-10T21:18:56.964Z,4.20
2023-05-10T21:23:59.916Z,3.80
2023-05-10T21:29:04.900Z,4.20
2023-05-10T21:34:07.935Z,3.80
2023-05-10T21:39:11.899Z,4.10
2023-05-10T21:44:14.869Z,4.30
2023-05-10T21:49:17.946Z,3.70
2023-05-10T21:54:20.901Z,4.10
2023-05-10T21:59:23.823Z,4.20
2023-05-10T22:04:26.730Z,4.20
2023-05-10T22:09:29.743Z,4.20
2023-05-10T22:14:32.654Z,4.20
2023-05-10T22:19:35.614Z,4.30
2023-05-10T22:24:38.759Z,4.00
2023-05-10T22:29:42.311Z,3.60
2023-05-10T22:34:45.248Z,3.90
2023-05-10T22:39:49.170Z,3.90
2023-05-10T22:44:52.395Z,3.80
2023-05-10T22:49:55.687Z,3.90
2023-05-10T22:54:58.786Z,4.20
2023-05-10T23:00:04.467Z,3.70
2023-05-10T23:05:08.287Z,3.60
2023-05-10T23:10:11.552Z,4.40
2023-05-10T23:15:14.599Z,4.00
2023-05-10T23:20:17.855Z,4.10
2023-05-10T23:25:21.109Z,4.30
2023-05-10T23:30:24.060Z,4.40
2023-05-10T23:35:27.114Z,4.40
2023-05-10T23:40:30.047Z,4.00
2023-05-10T23:45:34.004Z,4.30
2023-05-10T23:50:37.321Z,4.80
2023-05-10T23:55:40.241Z,4.30
